CheckWX is a tool to help pilots better visualize weather data.  It is not intended as a substitute for an official pre-flight weather briefing.

18:06:01 UTC

FAUT METAR
K. D. Matanzima Airport
Mthatha, South Africa
Current

1 hour ago

FAUT 171700Z 14008KT 9999 FEW030 18/16 Q1021
Observed
Feb-17 @ 17:00 UTC
Wind
  • 140° at 8 KTS
Visibility
10,000+ meters
Flight Rules
VFR
Cloud Levels
  • Few at 3,000' AGL
Temperature
18°C / 64°F
Dewpoint
16°C / 61°F
Humidity
88%
Altimeter
30.15" Hg
Pressure
1020.92 hPa
Previous

2 hours ago

FAUT 171600Z 14010KT 9999 SCT030 20/15 Q1021
Observed
Feb-17 @ 16:00 UTC
Wind
  • 140° at 10 KTS
Visibility
10,000+ meters
Flight Rules
VFR
Cloud Levels
  • Scattered at 3,000' AGL
Temperature
20°C / 68°F
Dewpoint
15°C / 59°F
Humidity
73%
Altimeter
30.15" Hg
Pressure
1020.92 hPa
Previous

3 hours ago

FAUT 171500Z 15013KT 9999 SCT030 23/15 Q1020
Observed
Feb-17 @ 15:00 UTC
Wind
  • 150° at 13 KTS
Visibility
10,000+ meters
Flight Rules
VFR
Cloud Levels
  • Scattered at 3,000' AGL
Temperature
23°C / 73°F
Dewpoint
15°C / 59°F
Humidity
61%
Altimeter
30.12" Hg
Pressure
1019.92 hPa